createdAt,value
2018-09-21T00:00:04.797Z,16.72
2018-09-21T00:01:05.028Z,16.78
2018-09-21T00:02:05.257Z,16.66
2018-09-21T00:03:05.487Z,16.61
2018-09-21T00:04:05.718Z,16.74
2018-09-21T00:05:05.946Z,16.74
2018-09-21T00:06:06.177Z,16.76
2018-09-21T00:07:06.408Z,16.66
2018-09-21T00:08:06.635Z,16.83
2018-09-21T00:09:06.865Z,16.74
2018-09-21T00:10:07.097Z,16.68
2018-09-21T00:11:07.326Z,16.58
2018-09-21T00:12:07.556Z,16.64
2018-09-21T00:13:07.786Z,16.51
2018-09-21T00:14:08.015Z,16.69
2018-09-21T00:15:08.246Z,16.71
2018-09-21T00:16:08.473Z,16.75
2018-09-21T00:17:08.702Z,16.81
2018-09-21T00:18:08.932Z,16.66
2018-09-21T00:19:09.161Z,16.68
2018-09-21T00:20:09.391Z,16.53
2018-09-21T00:21:09.624Z,16.65
2018-09-21T00:22:09.849Z,16.64
2018-09-21T00:23:10.082Z,16.65
2018-09-21T00:24:10.310Z,16.61
2018-09-21T00:25:10.539Z,16.69
2018-09-21T00:26:10.768Z,16.66
2018-09-21T00:27:10.999Z,16.60
2018-09-21T00:28:11.226Z,16.75
2018-09-21T00:29:11.455Z,16.76
2018-09-21T00:30:11.686Z,16.66
2018-09-21T00:31:11.915Z,16.66
2018-09-21T00:32:12.144Z,16.74
2018-09-21T00:33:12.372Z,16.60
2018-09-21T00:34:12.604Z,16.60
2018-09-21T00:35:12.834Z,16.47
2018-09-21T00:36:13.062Z,16.56
2018-09-21T00:37:13.291Z,16.61
2018-09-21T00:38:13.519Z,16.57
2018-09-21T00:39:13.749Z,16.58
2018-09-21T00:40:13.977Z,16.74
2018-09-21T00:41:14.209Z,16.65
2018-09-21T00:42:14.436Z,16.61
2018-09-21T00:43:14.664Z,16.69
2018-09-21T00:44:14.900Z,16.69
2018-09-21T00:45:15.127Z,16.65
2018-09-21T00:46:15.359Z,16.66
2018-09-21T00:47:15.589Z,16.68
2018-09-21T00:48:15.815Z,16.51
2018-09-21T00:49:16.043Z,16.57
2018-09-21T00:50:16.275Z,16.58
2018-09-21T00:51:16.503Z,16.64
2018-09-21T00:52:16.734Z,16.69
2018-09-21T00:53:16.963Z,16.72
2018-09-21T00:54:17.192Z,16.66
2018-09-21T00:55:17.421Z,16.60
2018-09-21T00:56:17.649Z,16.42
2018-09-21T00:57:17.876Z,16.60
2018-09-21T00:58:18.105Z,16.58
2018-09-21T00:59:18.334Z,16.61
2018-09-21T01:00:18.560Z,16.47
2018-09-21T01:01:18.815Z,16.42
2018-09-21T01:02:19.074Z,16.41
2018-09-21T01:03:19.320Z,16.36
2018-09-21T01:04:19.550Z,16.41
2018-09-21T01:05:19.779Z,16.47
2018-09-21T01:06:20.012Z,16.49
2018-09-21T01:07:20.239Z,16.31
2018-09-21T01:08:20.468Z,16.16
2018-09-21T01:09:20.699Z,16.21
2018-09-21T01:10:20.929Z,16.24
2018-09-21T01:11:21.160Z,16.31
2018-09-21T01:12:21.389Z,16.35
2018-09-21T01:13:21.617Z,16.38
2018-09-21T01:14:21.847Z,16.41
2018-09-21T01:15:22.076Z,16.43
2018-09-21T01:16:22.311Z,16.31
2018-09-21T01:17:22.537Z,16.26
2018-09-21T01:18:22.767Z,16.26
2018-09-21T01:19:22.995Z,16.15
2018-09-21T01:20:23.226Z,16.38
2018-09-21T01:21:23.457Z,16.38
2018-09-21T01:22:23.684Z,16.39
2018-09-21T01:23:23.915Z,16.47
2018-09-21T01:24:24.145Z,16.46
2018-09-21T01:25:24.379Z,16.35
2018-09-21T01:26:24.605Z,16.21
2018-09-21T01:27:24.834Z,16.28
2018-09-21T01:28:25.065Z,16.38
2018-09-21T01:29:25.297Z,16.32
2018-09-21T01:30:25.525Z,16.47
2018-09-21T01:31:25.753Z,16.51
2018-09-21T01:32:25.987Z,16.54
2018-09-21T01:33:26.215Z,16.43
2018-09-21T01:34:26.440Z,16.54
2018-09-21T01:35:26.670Z,16.56
2018-09-21T01:36:26.897Z,16.58
2018-09-21T01:37:27.126Z,16.57
2018-09-21T01:38:27.354Z,16.42
2018-09-21T01:39:27.583Z,16.43
2018-09-21T01:40:27.814Z,16.17
2018-09-21T01:41:28.039Z,16.32
2018-09-21T01:42:28.269Z,16.24
2018-09-21T01:43:28.497Z,16.10
2018-09-21T01:44:28.723Z,16.29
2018-09-21T01:45:28.952Z,16.35
2018-09-21T01:46:29.184Z,16.33
2018-09-21T01:47:29.412Z,16.38
2018-09-21T01:48:29.640Z,16.47
2018-09-21T01:49:29.871Z,16.47
2018-09-21T01:50:30.125Z,16.54
2018-09-21T01:51:30.332Z,16.51
2018-09-21T01:52:30.559Z,16.54
2018-09-21T01:53:30.787Z,16.43
2018-09-21T01:54:31.016Z,16.53
2018-09-21T01:55:31.250Z,16.49
2018-09-21T01:56:31.475Z,16.43
2018-09-21T01:57:31.705Z,16.53
2018-09-21T01:58:31.933Z,16.53
2018-09-21T01:59:32.162Z,16.38
2018-09-21T02:00:32.392Z,16.21
2018-09-21T02:01:32.620Z,16.15
2018-09-21T02:02:32.850Z,16.26
2018-09-21T02:03:33.078Z,16.33
2018-09-21T02:04:33.314Z,16.39
2018-09-21T02:05:33.539Z,16.33
2018-09-21T02:06:33.767Z,16.35
2018-09-21T02:07:33.997Z,16.38
2018-09-21T02:08:34.226Z,16.31
2018-09-21T02:09:34.469Z,16.39
2018-09-21T02:10:34.685Z,16.39
2018-09-21T02:11:34.914Z,16.36
2018-09-21T02:12:35.143Z,16.41
2018-09-21T02:13:35.370Z,16.36
2018-09-21T02:14:35.598Z,16.36
2018-09-21T02:15:35.825Z,16.39
2018-09-21T02:16:36.055Z,16.39
2018-09-21T02:17:36.310Z,16.38
2018-09-21T02:18:36.514Z,16.10
2018-09-21T02:19:36.745Z,16.02
2018-09-21T02:20:36.974Z,16.12
2018-09-21T02:21:37.201Z,16.16
2018-09-21T02:22:37.432Z,16.20
2018-09-21T02:23:37.660Z,16.16
2018-09-21T02:24:37.892Z,16.02
2018-09-21T02:25:38.119Z,15.98
2018-09-21T02:26:38.350Z,16.04
2018-09-21T02:27:38.578Z,15.94
2018-09-21T02:28:38.809Z,16.02
2018-09-21T02:29:39.035Z,16.01
2018-09-21T02:30:39.266Z,15.83
2018-09-21T02:31:39.495Z,15.91
2018-09-21T02:32:39.724Z,15.82
2018-09-21T02:33:39.952Z,15.88
2018-09-21T02:34:40.182Z,15.83
2018-09-21T02:35:40.411Z,15.88
2018-09-21T02:36:40.651Z,15.91
2018-09-21T02:37:40.869Z,15.84
2018-09-21T02:38:41.102Z,15.90
2018-09-21T02:39:41.328Z,15.97
2018-09-21T02:40:41.559Z,15.91
2018-09-21T02:41:41.789Z,16.00
2018-09-21T02:42:42.024Z,16.00
2018-09-21T02:43:42.255Z,16.00
2018-09-21T02:44:42.483Z,16.00
2018-09-21T02:45:42.712Z,16.01
2018-09-21T02:46:42.941Z,16.05
2018-09-21T02:47:43.172Z,16.04
2018-09-21T02:48:43.411Z,15.91
2018-09-21T02:49:43.628Z,15.75
2018-09-21T02:50:43.857Z,15.73
2018-09-21T02:51:44.086Z,15.62
2018-09-21T02:52:44.316Z,15.62
2018-09-21T02:53:44.547Z,15.61
2018-09-21T02:54:44.775Z,15.62
2018-09-21T02:55:45.006Z,15.59
2018-09-21T02:56:45.237Z,15.57
2018-09-21T02:57:45.465Z,15.58
2018-09-21T02:58:45.695Z,15.55
2018-09-21T02:59:45.927Z,15.59
2018-09-21T03:00:46.243Z,15.64
2018-09-21T03:01:46.387Z,15.65
2018-09-21T03:02:46.614Z,15.68
2018-09-21T03:03:46.844Z,15.67
2018-09-21T03:04:47.075Z,15.61
2018-09-21T03:05:47.304Z,15.70
2018-09-21T03:06:47.536Z,15.61
2018-09-21T03:07:47.763Z,15.68
2018-09-21T03:08:47.994Z,15.57
2018-09-21T03:09:48.224Z,15.65
2018-09-21T03:10:48.452Z,15.62
2018-09-21T03:11:48.692Z,15.64
2018-09-21T03:12:48.928Z,15.61
2018-09-21T03:13:49.156Z,15.61
2018-09-21T03:14:49.366Z,15.64
2018-09-21T03:15:49.593Z,15.58
2018-09-21T03:16:49.823Z,15.62
2018-09-21T03:17:50.053Z,15.61
2018-09-21T03:18:50.282Z,15.49
2018-09-21T03:19:50.505Z,15.44
2018-09-21T03:20:50.737Z,15.44
2018-09-21T03:21:50.965Z,15.51
2018-09-21T03:22:51.194Z,15.47
2018-09-21T03:23:51.423Z,15.44
2018-09-21T03:24:51.655Z,15.46
2018-09-21T03:25:51.880Z,15.43
2018-09-21T03:26:52.110Z,15.39
2018-09-21T03:27:52.340Z,15.39
2018-09-21T03:28:52.570Z,15.29
2018-09-21T03:29:52.798Z,15.29
2018-09-21T03:30:53.028Z,15.19
2018-09-21T03:31:53.261Z,15.19
2018-09-21T03:32:53.482Z,15.24
2018-09-21T03:33:53.716Z,15.07
2018-09-21T03:34:54.013Z,14.91
2018-09-21T03:35:54.173Z,14.86
2018-09-21T03:36:54.403Z,14.97
2018-09-21T03:37:54.633Z,15.07
2018-09-21T03:38:54.861Z,15.07
2018-09-21T03:39:55.095Z,15.00
2018-09-21T03:40:55.325Z,15.03
2018-09-21T03:41:55.554Z,15.14
2018-09-21T03:42:55.784Z,15.11
2018-09-21T03:43:56.009Z,15.10
2018-09-21T03:44:56.239Z,15.03
2018-09-21T03:45:56.466Z,15.04
2018-09-21T03:46:56.697Z,15.10
2018-09-21T03:47:56.925Z,15.00
2018-09-21T03:48:57.156Z,14.92
2018-09-21T03:49:57.383Z,14.86
2018-09-21T03:50:57.613Z,14.94
2018-09-21T03:51:57.842Z,14.96
2018-09-21T03:52:58.073Z,14.92
2018-09-21T03:53:58.303Z,14.99
2018-09-21T03:54:58.530Z,14.91
2018-09-21T03:55:58.761Z,15.03
2018-09-21T03:56:58.990Z,15.09
2018-09-21T03:57:59.225Z,15.09
2018-09-21T03:58:59.448Z,15.06
2018-09-21T03:59:59.677Z,15.10
2018-09-21T04:00:59.971Z,15.06
2018-09-21T04:02:00.141Z,14.91
2018-09-21T04:03:00.369Z,14.89
2018-09-21T04:04:00.602Z,14.97
2018-09-21T04:05:00.828Z,14.92
2018-09-21T04:06:01.056Z,14.99
2018-09-21T04:07:01.285Z,15.10
2018-09-21T04:08:01.515Z,15.09
2018-09-21T04:09:01.745Z,15.03
2018-09-21T04:10:01.976Z,15.14
2018-09-21T04:11:02.203Z,15.04
2018-09-21T04:12:02.430Z,15.02
2018-09-21T04:13:02.661Z,15.06
2018-09-21T04:14:02.889Z,15.14
2018-09-21T04:15:03.118Z,15.18
2018-09-21T04:16:03.347Z,15.04
2018-09-21T04:17:03.575Z,15.03
2018-09-21T04:18:03.804Z,15.04
2018-09-21T04:19:04.031Z,15.09
2018-09-21T04:20:04.257Z,15.18
2018-09-21T04:21:04.487Z,15.19
2018-09-21T04:22:04.718Z,15.22
2018-09-21T04:23:05.025Z,15.25
2018-09-21T04:24:05.173Z,15.33
2018-09-21T04:25:05.400Z,15.17
2018-09-21T04:26:05.629Z,15.22
2018-09-21T04:27:05.859Z,15.27
2018-09-21T04:28:06.090Z,15.22
2018-09-21T04:29:06.319Z,15.03
2018-09-21T04:30:06.549Z,15.03
2018-09-21T04:31:06.779Z,15.00
2018-09-21T04:32:07.007Z,15.00
2018-09-21T04:33:07.236Z,14.92
2018-09-21T04:34:07.470Z,15.03
2018-09-21T04:35:07.695Z,15.06
2018-09-21T04:36:07.942Z,15.10
2018-09-21T04:37:08.152Z,15.04
2018-09-21T04:38:08.382Z,15.10
2018-09-21T04:39:08.612Z,15.04
2018-09-21T04:40:08.842Z,15.14
2018-09-21T04:41:09.071Z,15.19
2018-09-21T04:42:09.300Z,15.24
2018-09-21T04:43:09.529Z,15.27
2018-09-21T04:44:09.758Z,15.35
2018-09-21T04:45:10.002Z,15.27
2018-09-21T04:46:10.218Z,15.17
2018-09-21T04:47:10.446Z,15.18
2018-09-21T04:48:10.674Z,15.15
2018-09-21T04:49:10.904Z,15.04
2018-09-21T04:50:11.134Z,14.97
2018-09-21T04:51:11.363Z,15.06
2018-09-21T04:52:11.592Z,15.14
2018-09-21T04:53:11.822Z,15.14
2018-09-21T04:54:12.052Z,15.18
2018-09-21T04:55:12.283Z,15.21
2018-09-21T04:56:12.514Z,15.24
2018-09-21T04:57:12.747Z,15.25
2018-09-21T04:58:12.974Z,15.25
2018-09-21T04:59:13.203Z,15.42
2018-09-21T05:00:13.432Z,15.43
2018-09-21T05:01:13.660Z,15.49
2018-09-21T05:02:13.891Z,15.62
2018-09-21T05:03:14.125Z,15.65
2018-09-21T05:04:14.359Z,15.58
2018-09-21T05:05:14.578Z,15.59
2018-09-21T05:06:14.808Z,15.73
2018-09-21T05:07:15.038Z,15.80
2018-09-21T05:08:15.268Z,15.80
2018-09-21T05:09:15.498Z,15.83
2018-09-21T05:10:15.727Z,15.91
2018-09-21T05:11:15.957Z,15.88
2018-09-21T05:12:16.184Z,15.83
2018-09-21T05:13:16.415Z,15.91
2018-09-21T05:14:16.647Z,15.97
2018-09-21T05:15:16.877Z,16.00
2018-09-21T05:16:17.108Z,16.00
2018-09-21T05:17:17.336Z,16.02
2018-09-21T05:18:17.565Z,16.04
2018-09-21T05:19:17.793Z,16.23
2018-09-21T05:20:18.024Z,16.26
2018-09-21T05:21:18.251Z,16.33
2018-09-21T05:22:18.482Z,16.50
2018-09-21T05:23:18.712Z,16.60
2018-09-21T05:24:18.941Z,16.71
2018-09-21T05:25:19.171Z,16.56
2018-09-21T05:26:19.402Z,16.71
2018-09-21T05:27:19.632Z,16.66
2018-09-21T05:28:19.861Z,16.60
2018-09-21T05:29:20.090Z,16.72
2018-09-21T05:30:20.321Z,16.68
2018-09-21T05:31:20.553Z,16.60
2018-09-21T05:32:20.780Z,16.58
2018-09-21T05:33:21.011Z,16.66
2018-09-21T05:34:21.313Z,16.58
2018-09-21T05:35:21.469Z,16.54
2018-09-21T05:36:21.700Z,16.71
2018-09-21T05:37:21.930Z,16.53
2018-09-21T05:38:22.159Z,16.54
2018-09-21T05:39:22.391Z,16.60
2018-09-21T05:40:22.619Z,16.71
2018-09-21T05:41:22.855Z,16.51
2018-09-21T05:42:23.082Z,16.58
2018-09-21T05:43:23.313Z,16.66
2018-09-21T05:44:23.540Z,16.69
2018-09-21T05:45:23.770Z,16.71
2018-09-21T05:46:24.001Z,16.66
2018-09-21T05:47:24.230Z,16.68
2018-09-21T05:48:24.459Z,16.79
2018-09-21T05:49:24.689Z,16.76
2018-09-21T05:50:24.920Z,16.76
2018-09-21T05:51:25.152Z,16.79
2018-09-21T05:52:25.380Z,16.89
2018-09-21T05:53:25.611Z,16.87
2018-09-21T05:54:25.842Z,16.93
2018-09-21T05:55:26.072Z,16.90
2018-09-21T05:56:26.300Z,17.02
2018-09-21T05:57:26.529Z,16.94
2018-09-21T05:58:26.759Z,16.94
2018-09-21T05:59:26.991Z,17.06
2018-09-21T06:00:27.264Z,17.09
2018-09-21T06:01:27.445Z,17.22
2018-09-21T06:02:27.680Z,17.52
2018-09-21T06:03:27.901Z,17.74
2018-09-21T06:04:28.130Z,18.10
2018-09-21T06:05:28.362Z,18.23
2018-09-21T06:06:28.593Z,18.59
2018-09-21T06:07:28.821Z,18.71
2018-09-21T06:08:29.053Z,18.90
2018-09-21T06:09:29.284Z,19.21
2018-09-21T06:10:29.515Z,19.36
2018-09-21T06:11:29.746Z,19.56
2018-09-21T06:12:29.976Z,19.76
2018-09-21T06:13:30.259Z,19.86
2018-09-21T06:14:30.467Z,20.07
2018-09-21T06:15:30.684Z,20.24
2018-09-21T06:16:30.914Z,20.50
2018-09-21T06:17:31.160Z,20.70
2018-09-21T06:18:31.374Z,20.80
2018-09-21T06:19:31.668Z,21.05
2018-09-21T06:20:31.839Z,21.22
2018-09-21T06:21:32.068Z,21.45
2018-09-21T06:22:32.299Z,21.43
2018-09-21T06:23:32.531Z,21.64
2018-09-21T06:24:32.761Z,21.82
2018-09-21T06:25:32.992Z,22.00
2018-09-21T06:26:33.227Z,22.11
2018-09-21T06:27:33.458Z,22.15
2018-09-21T06:28:33.689Z,22.33
2018-09-21T06:29:33.921Z,22.44
2018-09-21T06:30:34.155Z,22.48
2018-09-21T06:31:34.389Z,22.70
2018-09-21T06:32:34.623Z,22.69
2018-09-21T06:33:34.865Z,22.70
2018-09-21T06:34:35.085Z,22.69
2018-09-21T06:35:35.322Z,22.83
2018-09-21T06:36:35.552Z,22.87
2018-09-21T06:37:35.783Z,22.93
2018-09-21T06:38:36.014Z,22.93
2018-09-21T06:39:36.248Z,23.00
2018-09-21T06:40:36.479Z,23.03
2018-09-21T06:41:36.711Z,23.15
2018-09-21T06:42:36.944Z,22.99
2018-09-21T06:43:37.177Z,23.03
2018-09-21T06:44:37.410Z,23.25
2018-09-21T06:45:37.643Z,23.23
2018-09-21T06:46:37.877Z,23.18
2018-09-21T06:47:38.110Z,23.28
2018-09-21T06:48:38.341Z,23.34
2018-09-21T06:49:38.575Z,23.39
2018-09-21T06:50:38.807Z,23.59
2018-09-21T06:51:39.045Z,23.43
2018-09-21T06:52:39.274Z,23.56
2018-09-21T06:53:39.511Z,23.54
2018-09-21T06:54:39.742Z,23.66
2018-09-21T06:55:39.975Z,23.65
2018-09-21T06:56:40.207Z,23.66
2018-09-21T06:57:40.442Z,23.74
2018-09-21T06:58:40.676Z,23.80
2018-09-21T06:59:40.920Z,23.78
2018-09-21T07:00:41.139Z,23.84
2018-09-21T07:01:41.408Z,23.98
2018-09-21T07:02:41.608Z,24.06
2018-09-21T07:03:41.840Z,24.08
2018-09-21T07:04:42.075Z,24.08
2018-09-21T07:05:42.307Z,24.11
2018-09-21T07:06:42.538Z,24.18
2018-09-21T07:07:42.773Z,24.24
2018-09-21T07:08:43.006Z,24.17
2018-09-21T07:09:43.238Z,24.24
2018-09-21T07:10:43.471Z,24.30
2018-09-21T07:11:43.711Z,24.42
2018-09-21T07:12:43.937Z,24.39
2018-09-21T07:13:44.186Z,24.50
2018-09-21T07:14:44.403Z,24.61
2018-09-21T07:15:44.647Z,24.60
2018-09-21T07:16:44.870Z,24.69
2018-09-21T07:17:45.105Z,24.63
2018-09-21T07:18:45.335Z,24.74
2018-09-21T07:19:45.567Z,24.73
2018-09-21T07:20:45.799Z,24.91
2018-09-21T07:21:46.033Z,24.84
2018-09-21T07:22:46.266Z,24.77
2018-09-21T07:23:46.502Z,24.78
2018-09-21T07:24:46.735Z,24.84
2018-09-21T07:25:46.966Z,24.92
2018-09-21T07:26:47.201Z,24.92
2018-09-21T07:27:47.436Z,24.91
2018-09-21T07:28:47.672Z,24.85
2018-09-21T07:29:47.892Z,24.77
2018-09-21T07:30:48.156Z,24.74
2018-09-21T07:31:48.346Z,24.70
2018-09-21T07:32:48.598Z,24.69
2018-09-21T07:33:48.832Z,24.63
2018-09-21T07:34:49.061Z,24.54
2018-09-21T07:35:49.291Z,24.57
2018-09-21T07:36:49.526Z,24.57
2018-09-21T07:37:49.760Z,24.51
2018-09-21T07:38:49.991Z,24.57
2018-09-21T07:39:50.225Z,24.58
2018-09-21T07:40:50.456Z,24.53
2018-09-21T07:41:50.691Z,24.58
2018-09-21T07:42:50.921Z,24.65
2018-09-21T07:43:51.153Z,24.69
2018-09-21T07:44:51.392Z,24.70
2018-09-21T07:45:51.618Z,24.80
2018-09-21T07:46:51.847Z,24.93
2018-09-21T07:47:52.082Z,25.14
2018-09-21T07:48:52.377Z,25.21
2018-09-21T07:49:52.552Z,25.18
2018-09-21T07:50:52.781Z,25.35
2018-09-21T07:51:53.016Z,25.29
2018-09-21T07:52:53.250Z,25.36
2018-09-21T07:53:53.483Z,25.31
2018-09-21T07:54:53.713Z,25.53
2018-09-21T07:55:53.953Z,25.70
2018-09-21T07:56:54.170Z,25.73
2018-09-21T07:57:54.410Z,25.75
2018-09-21T07:58:54.638Z,25.84
2018-09-21T07:59:54.874Z,25.91
2018-09-21T08:00:55.109Z,26.13
2018-09-21T08:01:55.341Z,26.15
2018-09-21T08:02:55.571Z,26.19
2018-09-21T08:03:55.798Z,26.29
2018-09-21T08:04:56.075Z,26.15
2018-09-21T08:05:56.275Z,25.93
2018-09-21T08:06:56.501Z,25.87
2018-09-21T08:07:56.721Z,25.95
2018-09-21T08:08:56.951Z,25.93
2018-09-21T08:09:57.187Z,25.95
2018-09-21T08:10:57.418Z,25.98
2018-09-21T08:11:57.652Z,25.93
2018-09-21T08:12:57.940Z,26.02
2018-09-21T08:13:58.121Z,26.10
2018-09-21T08:14:58.355Z,26.15
2018-09-21T08:15:58.591Z,26.06
2018-09-21T08:16:58.826Z,26.09
2018-09-21T08:17:59.065Z,26.13
2018-09-21T08:18:59.295Z,26.03
2018-09-21T08:19:59.529Z,26.09
2018-09-21T08:20:59.764Z,25.91
2018-09-21T08:21:59.998Z,25.88
2018-09-21T08:23:00.233Z,25.95
2018-09-21T08:24:00.467Z,25.85
2018-09-21T08:25:00.731Z,25.87
2018-09-21T08:26:00.935Z,25.80
2018-09-21T08:27:01.169Z,25.73
2018-09-21T08:28:01.404Z,25.75
2018-09-21T08:29:01.639Z,25.78
2018-09-21T08:30:01.877Z,25.75
2018-09-21T08:31:02.108Z,25.59
2018-09-21T08:32:02.347Z,25.65
2018-09-21T08:33:02.636Z,25.68
2018-09-21T08:34:02.811Z,25.77
2018-09-21T08:35:03.047Z,25.69
2018-09-21T08:36:03.279Z,25.55
2018-09-21T08:37:03.539Z,25.51
2018-09-21T08:38:03.747Z,25.43
2018-09-21T08:39:03.983Z,25.53
2018-09-21T08:40:04.216Z,25.60
2018-09-21T08:41:04.450Z,25.62
2018-09-21T08:42:04.689Z,25.60
2018-09-21T08:43:04.921Z,25.66
2018-09-21T08:44:05.154Z,25.68
2018-09-21T08:45:05.388Z,25.68
2018-09-21T08:46:05.622Z,25.72
2018-09-21T08:47:05.866Z,25.73
2018-09-21T08:48:06.088Z,25.84
2018-09-21T08:49:06.323Z,25.66
2018-09-21T08:50:06.557Z,25.75
2018-09-21T08:51:06.794Z,25.62
2018-09-21T08:52:07.024Z,25.66
2018-09-21T08:53:07.258Z,25.68
2018-09-21T08:54:07.492Z,25.78
2018-09-21T08:55:07.736Z,25.70
2018-09-21T08:56:07.960Z,25.77
2018-09-21T08:57:08.194Z,25.65
2018-09-21T08:58:08.429Z,25.63
2018-09-21T08:59:08.665Z,25.60
2018-09-21T09:00:08.899Z,25.62
2018-09-21T09:01:09.130Z,25.68
2018-09-21T09:02:09.363Z,25.68
2018-09-21T09:03:09.684Z,25.75
2018-09-21T09:04:09.834Z,25.66
2018-09-21T09:05:10.072Z,25.62
2018-09-21T09:06:10.301Z,25.70
2018-09-21T09:07:10.534Z,25.73
2018-09-21T09:08:10.769Z,25.65
2018-09-21T09:09:11.003Z,25.78
2018-09-21T09:10:11.250Z,25.78
2018-09-21T09:11:11.471Z,25.72
2018-09-21T09:12:11.705Z,25.78
2018-09-21T09:13:11.939Z,25.75
2018-09-21T09:14:12.173Z,25.65
2018-09-21T09:15:12.410Z,25.68
2018-09-21T09:16:12.641Z,25.66
2018-09-21T09:17:12.873Z,25.77
2018-09-21T09:18:13.105Z,25.73
2018-09-21T09:19:13.366Z,25.65
2018-09-21T09:20:13.582Z,25.70
2018-09-21T09:21:13.831Z,25.77
2018-09-21T09:22:14.195Z,25.88
2018-09-21T09:23:14.322Z,25.87
2018-09-21T09:24:14.514Z,25.83
2018-09-21T09:25:14.751Z,25.87
2018-09-21T09:26:14.981Z,25.93
2018-09-21T09:27:15.213Z,25.96
2018-09-21T09:28:15.443Z,26.09
2018-09-21T09:29:15.679Z,26.10
2018-09-21T09:30:15.914Z,26.09
2018-09-21T09:31:16.145Z,26.22
2018-09-21T09:32:16.388Z,26.26
2018-09-21T09:33:16.612Z,26.28
2018-09-21T09:34:16.839Z,26.18
2018-09-21T09:35:17.074Z,26.07
2018-09-21T09:36:17.309Z,26.22
2018-09-21T09:37:17.538Z,26.26
2018-09-21T09:38:17.775Z,26.25
2018-09-21T09:39:17.998Z,26.22
2018-09-21T09:40:18.229Z,26.31
2018-09-21T09:41:18.463Z,26.33
2018-09-21T09:42:18.696Z,26.31
2018-09-21T09:43:18.948Z,26.40
2018-09-21T09:44:19.161Z,26.51
2018-09-21T09:45:19.400Z,26.51
2018-09-21T09:46:19.631Z,26.65
2018-09-21T09:47:19.870Z,26.70
2018-09-21T09:48:20.135Z,26.74
2018-09-21T09:49:20.366Z,26.81
2018-09-21T09:50:20.572Z,26.70
2018-09-21T09:51:20.805Z,26.70
2018-09-21T09:52:21.043Z,26.56
2018-09-21T09:53:21.277Z,26.62
2018-09-21T09:54:21.511Z,26.51
2018-09-21T09:55:21.735Z,26.51
2018-09-21T09:56:21.970Z,26.51
2018-09-21T09:57:22.203Z,26.74
2018-09-21T09:58:22.440Z,26.74
2018-09-21T09:59:22.677Z,26.73
2018-09-21T10:00:22.907Z,26.78
2018-09-21T10:01:23.144Z,26.88
2018-09-21T10:02:23.380Z,26.96
2018-09-21T10:03:23.660Z,27.14
2018-09-21T10:04:23.852Z,27.08
2018-09-21T10:05:24.088Z,27.02
2018-09-21T10:06:24.317Z,26.96
2018-09-21T10:07:24.552Z,27.11
2018-09-21T10:08:24.788Z,27.08
2018-09-21T10:09:25.020Z,27.20
2018-09-21T10:10:25.304Z,27.17
2018-09-21T10:11:25.483Z,27.10
2018-09-21T10:12:25.715Z,27.17
2018-09-21T10:13:25.949Z,27.00
2018-09-21T10:14:26.175Z,26.99
2018-09-21T10:15:26.429Z,27.07
2018-09-21T10:16:26.673Z,26.96
2018-09-21T10:17:26.901Z,26.93
2018-09-21T10:18:27.142Z,26.92
2018-09-21T10:19:27.371Z,26.95
2018-09-21T10:20:27.627Z,26.95
2018-09-21T10:21:27.840Z,26.81
2018-09-21T10:22:28.077Z,26.88
2018-09-21T10:23:28.310Z,26.84
2018-09-21T10:24:28.546Z,26.71
2018-09-21T10:25:28.802Z,26.68
2018-09-21T10:26:29.018Z,26.59
2018-09-21T10:27:29.345Z,26.75
2018-09-21T10:28:29.720Z,26.74
2018-09-21T10:29:29.732Z,26.62
2018-09-21T10:30:29.981Z,26.68
2018-09-21T10:31:30.231Z,26.74
2018-09-21T10:32:30.414Z,26.71
2018-09-21T10:33:30.707Z,26.56
2018-09-21T10:34:30.942Z,26.68
2018-09-21T10:35:31.177Z,26.68
2018-09-21T10:36:31.383Z,26.73
2018-09-21T10:37:31.587Z,26.74
2018-09-21T10:38:31.817Z,26.71
2018-09-21T10:39:32.070Z,26.83
2018-09-21T10:40:32.382Z,26.84
2018-09-21T10:41:32.542Z,26.88
2018-09-21T10:42:32.821Z,26.80
2018-09-21T10:43:33.018Z,26.73
2018-09-21T10:44:33.245Z,26.74
2018-09-21T10:45:33.489Z,26.77
2018-09-21T10:46:33.710Z,26.74
2018-09-21T10:47:33.942Z,26.75
2018-09-21T10:48:34.176Z,26.74
2018-09-21T10:49:34.435Z,26.52
2018-09-21T10:50:34.667Z,26.44
2018-09-21T10:51:34.906Z,26.33
2018-09-21T10:52:35.145Z,26.34
2018-09-21T10:53:35.365Z,26.28
2018-09-21T10:54:35.599Z,26.31
2018-09-21T10:55:35.831Z,26.38
2018-09-21T10:56:36.064Z,26.26
2018-09-21T10:57:36.340Z,26.21
2018-09-21T10:58:36.581Z,26.16
2018-09-21T10:59:36.750Z,26.09
2018-09-21T11:00:37.030Z,26.02
2018-09-21T11:01:37.223Z,26.05
2018-09-21T11:02:37.453Z,26.10
2018-09-21T11:03:37.690Z,26.05
2018-09-21T11:04:37.928Z,26.10
2018-09-21T11:05:38.155Z,26.13
2018-09-21T11:06:38.389Z,26.21
2018-09-21T11:07:38.624Z,26.22
2018-09-21T11:08:38.863Z,26.28
2018-09-21T11:09:39.082Z,26.40
2018-09-21T11:10:39.321Z,26.45
2018-09-21T11:11:39.554Z,26.44
2018-09-21T11:12:39.788Z,26.47
2018-09-21T11:13:40.023Z,26.37
2018-09-21T11:14:40.253Z,26.29
2018-09-21T11:15:40.492Z,26.21
2018-09-21T11:16:40.727Z,26.31
2018-09-21T11:17:40.963Z,26.22
2018-09-21T11:18:41.194Z,26.28
2018-09-21T11:19:41.430Z,26.18
2018-09-21T11:20:41.662Z,26.22
2018-09-21T11:21:41.898Z,26.09
2018-09-21T11:22:42.131Z,26.07
2018-09-21T11:23:42.361Z,26.15
2018-09-21T11:24:42.593Z,26.18
2018-09-21T11:25:42.828Z,26.16
2018-09-21T11:26:43.062Z,26.21
2018-09-21T11:27:43.293Z,26.31
2018-09-21T11:28:43.528Z,26.38
2018-09-21T11:29:43.762Z,26.40
2018-09-21T11:30:43.997Z,26.40
2018-09-21T11:31:44.227Z,26.51
2018-09-21T11:32:44.464Z,26.52
2018-09-21T11:33:44.700Z,26.63
2018-09-21T11:34:44.935Z,26.73
2018-09-21T11:35:45.168Z,26.70
2018-09-21T11:36:45.402Z,26.85
2018-09-21T11:37:45.636Z,26.80
2018-09-21T11:38:45.871Z,26.89
2018-09-21T11:39:46.112Z,26.93
2018-09-21T11:40:46.332Z,26.93
2018-09-21T11:41:46.572Z,26.96
2018-09-21T11:42:46.802Z,26.96
2018-09-21T11:43:47.945Z,26.90
2018-09-21T11:44:47.302Z,26.78
2018-09-21T11:45:47.550Z,26.74
2018-09-21T11:46:47.833Z,26.68
2018-09-21T11:47:48.102Z,26.65
2018-09-21T11:48:48.220Z,26.59
2018-09-21T11:49:48.455Z,26.62
2018-09-21T11:50:48.688Z,26.52
2018-09-21T11:51:48.925Z,26.52
2018-09-21T11:52:49.160Z,26.53
2018-09-21T11:53:49.398Z,26.55
2018-09-21T11:54:49.633Z,26.56
2018-09-21T11:55:49.867Z,26.53
2018-09-21T11:56:50.101Z,26.34
2018-09-21T11:57:50.337Z,26.23
2018-09-21T11:58:50.571Z,26.15
2018-09-21T11:59:50.805Z,26.10
2018-09-21T12:00:51.043Z,25.91
2018-09-21T12:01:51.342Z,25.87
2018-09-21T12:02:51.518Z,25.80
2018-09-21T12:03:51.738Z,25.90
2018-09-21T12:04:51.987Z,25.99
2018-09-21T12:05:52.210Z,25.98
2018-09-21T12:06:52.951Z,25.99
2018-09-21T12:07:52.684Z,26.02
2018-09-21T12:08:52.918Z,25.98
2018-09-21T12:09:53.163Z,26.10
2018-09-21T12:10:53.380Z,26.02
2018-09-21T12:11:53.622Z,25.96
2018-09-21T12:12:53.840Z,26.10
2018-09-21T12:13:54.071Z,26.26
2018-09-21T12:14:54.297Z,26.25
2018-09-21T12:15:54.540Z,26.43
2018-09-21T12:16:54.773Z,26.48
2018-09-21T12:17:55.006Z,26.53
2018-09-21T12:18:55.245Z,26.51
2018-09-21T12:19:55.450Z,26.58
2018-09-21T12:20:55.682Z,26.65
2018-09-21T12:21:55.934Z,26.68
2018-09-21T12:22:56.148Z,26.74
2018-09-21T12:23:56.383Z,26.88
2018-09-21T12:24:56.620Z,26.84
2018-09-21T12:25:56.842Z,26.96
2018-09-21T12:26:57.076Z,27.08
2018-09-21T12:27:57.354Z,27.08
2018-09-21T12:28:57.544Z,27.15
2018-09-21T12:29:57.783Z,27.12
2018-09-21T12:30:58.013Z,27.10
2018-09-21T12:31:58.248Z,27.02
2018-09-21T12:32:58.482Z,26.97
2018-09-21T12:33:58.721Z,26.83
2018-09-21T12:34:58.954Z,26.89
2018-09-21T12:35:59.235Z,26.77
2018-09-21T12:36:59.426Z,26.60
2018-09-21T12:37:59.651Z,26.48
2018-09-21T12:38:59.889Z,26.25
2018-09-21T12:40:00.126Z,26.29
2018-09-21T12:41:00.358Z,26.28
2018-09-21T12:42:00.592Z,26.06
2018-09-21T12:43:00.822Z,26.09
2018-09-21T12:44:01.057Z,25.99
2018-09-21T12:45:01.290Z,25.93
2018-09-21T12:46:01.528Z,25.91
2018-09-21T12:47:01.765Z,25.84
2018-09-21T12:48:02.025Z,25.90
2018-09-21T12:49:02.226Z,25.90
2018-09-21T12:50:02.466Z,25.84
2018-09-21T12:51:02.690Z,25.80
2018-09-21T12:52:02.921Z,25.62
2018-09-21T12:53:03.151Z,25.51
2018-09-21T12:54:03.385Z,25.36
2018-09-21T12:55:03.620Z,25.14